Strona główna
METAR-TAF:

METAR-TAF

Lotnisko :

Port lotniczy Mae Sot

Mae Sot, Tajlandia

Szerokość geograficzna: 16-40N, Długość geograficzna: 098-33E, wysokość: 196 m

Aktualna obserwacja pogody

Raport powstał 39 minut temu, godzina 23:00 UTC
Cisza
Temperatura 19°C
Wilgotność 83%
Ciśnienie 1015 hPa
Widzialność: 4000 m
zamglenie

METAR: VTPM 232300Z 00000KT 4000 BR NSC 19/16 Q1015 NOSIG

czas: 06:39 (23:39 UTC)

Prognoza

Raport powstał 6 godziny i 39 minut temu, godzina 17:00 UTC
Prognoza ważna od 23 godzina 18 UTC do 24 godzina 18 UTC
Wiatr 5 kt od wschód
Widzialność: 7000 m
Mało chmury na wysokości 2500 ft
Stopniowe zmiany
od 23 godzina 21 UTC do 23 godzina 23 UTC
Widzialność: 2000 m
zamglenie
Stopniowe zmiany
od 24 godzina 01 UTC do 24 godzina 03 UTC
Widzialność: 6000 m
Mało chmury na wysokości 2500 ft

TAF: VTPM 231700Z 2318/2418 09005KT 7000 FEW025 BECMG 2321/2323 2000 BR NSC BECMG 2401/2403 6000 NSW FEW025

Obserwacja i prognoza pogody dla ponad 4000 lotnisk (raport METAR i TAF).

Dostępne stacje oznaczono żółtymi i czerwonymi punktami na mapie.

Najedź kursorem aby zobaczyć nazwę stacji.

Kliknij aby zobaczyć obserwacje i prognozy pogody.

Aby zmienić mapę: kliknij na zielony przycisk z czarnym krzyżykiem, aby powiększyć; na zielony przycisk z myślnikiem, aby pomniejszyć; na zielone strzałki, aby przejść do map sąsiednich.


METAR-TAF: